Time,TemperatureF,DewpointF,PressureIn,WindDirection,WindDirectionDegrees,WindSpeedMPH,WindSpeedGustMPH,Humidity,HourlyPrecipIn,Conditions,Clouds,dailyrainin,SolarRadiationWatts/m^2,SoftwareType,DateUTC
2013-01-08 00:03:00,15.7,12.8,30.01,ESE,111,0.0,0.0,88,0.00,CLR,,0.00,0.0,WeatherDisplay:10.37,2013-01-08 06:03:00,
2013-01-08 00:08:00,15.6,12.7,30.01,ESE,111,0.0,0.0,88,0.00,CLR,,0.00,0.0,WeatherDisplay:10.37,2013-01-08 06:08:00,
2013-01-08 00:13:00,15.4,12.5,30.01,ESE,111,0.0,0.0,88,0.00,CLR,,0.00,0.0,WeatherDisplay:10.37,2013-01-08 06:13:00,
2013-01-08 00:18:00,15.1,11.9,30.01,ESE,111,0.0,0.0,87,0.00,CLR,,0.00,0.0,WeatherDisplay:10.37,2013-01-08 06:18:00,
2013-01-08 00:23:00,14.9,11.7,30.02,ESE,111,0.0,0.0,87,0.00,CLR,,0.00,0.0,WeatherDisplay:10.37,2013-01-08 06:23:00,
2013-01-08 00:28:00,14.7,11.8,30.02,ESE,111,0.0,0.0,88,0.00,CLR,,0.00,0.0,WeatherDisplay:10.37,2013-01-08 06:28:00,
2013-01-08 00:33:00,14.5,11.6,30.02,ESE,111,0.0,0.0,88,0.00,CLR,,0.00,0.0,WeatherDisplay:10.37,2013-01-08 06:33:00,
2013-01-08 00:38:00,14.3,11.4,30.02,ESE,111,0.0,0.0,88,0.00,CLR,,0.00,0.0,WeatherDisplay:10.37,2013-01-08 06:38:00,
2013-01-08 00:43:00,14.0,10.8,30.02,ESE,111,0.0,0.0,87,0.00,CLR,,0.00,0.0,WeatherDisplay:10.37,2013-01-08 06:43:00,
2013-01-08 00:48:00,13.7,10.5,30.02,ESE,111,0.0,0.0,87,0.00,CLR,,0.00,0.0,WeatherDisplay:10.37,2013-01-08 06:48:00,
2013-01-08 00:53:00,13.5,10.4,30.02,ESE,111,0.0,0.0,87,0.00,CLR,,0.00,0.0,WeatherDisplay:10.37,2013-01-08 06:53:00,
2013-01-08 00:58:00,13.3,10.2,30.02,ESE,111,0.0,0.0,87,0.00,CLR,,0.00,0.0,WeatherDisplay:10.37,2013-01-08 06:58:00,
2013-01-08 01:03:00,13.2,10.3,30.02,ESE,111,0.0,0.0,88,0.00,CLR,,0.00,0.0,WeatherDisplay:10.37,2013-01-08 07:03:00,
2013-01-08 01:08:00,13.0,10.1,30.03,ESE,111,0.0,0.0,88,0.00,CLR,,0.00,0.0,WeatherDisplay:10.37,2013-01-08 07:08:00,
2013-01-08 01:13:00,12.9,10.0,30.03,ESE,111,0.0,0.0,88,0.00,CLR,,0.00,0.0,WeatherDisplay:10.37,2013-01-08 07:13:00,
2013-01-08 01:18:00,12.9,10.0,30.03,ESE,111,0.0,0.0,88,0.00,CLR,,0.00,0.0,WeatherDisplay:10.37,2013-01-08 07:18:00,
2013-01-08 01:23:00,13.0,10.1,30.03,ESE,111,0.0,0.0,88,0.00,CLR,,0.00,0.0,WeatherDisplay:10.37,2013-01-08 07:23:00,
2013-01-08 01:28:00,12.8,9.9,30.03,ESE,111,0.0,0.0,88,0.00,CLR,,0.00,0.0,WeatherDisplay:10.37,2013-01-08 07:28:00,
2013-01-08 01:33:00,12.6,9.5,30.03,ESE,111,0.0,0.0,87,0.00,CLR,,0.00,0.0,WeatherDisplay:10.37,2013-01-08 07:33:00,
2013-01-08 01:38:00,12.5,9.4,30.03,ESE,111,0.0,0.0,87,0.00,CLR,,0.00,0.0,WeatherDisplay:10.37,2013-01-08 07:38:00,
2013-01-08 01:43:00,12.4,9.3,30.03,ESE,111,0.0,0.0,87,0.00,CLR,,0.00,0.0,WeatherDisplay:10.37,2013-01-08 07:43:00,
2013-01-08 01:48:00,12.4,9.3,30.03,ESE,111,0.0,0.0,87,0.00,CLR,,0.00,0.0,WeatherDisplay:10.37,2013-01-08 07:48:00,
2013-01-08 01:53:00,12.2,9.1,30.04,ESE,111,0.0,0.0,87,0.00,CLR,,0.00,0.0,WeatherDisplay:10.37,2013-01-08 07:53:00,
2013-01-08 01:58:00,12.1,9.0,30.04,ESE,111,0.0,0.0,87,0.00,CLR,,0.00,0.0,WeatherDisplay:10.37,2013-01-08 07:58:00,
2013-01-08 02:03:00,11.9,8.8,30.04,ESE,111,0.0,0.0,87,0.00,CLR,,0.00,0.0,WeatherDisplay:10.37,2013-01-08 08:03:00,
2013-01-08 02:08:00,11.7,8.6,30.04,ESE,111,0.0,0.0,87,0.00,CLR,,0.00,0.0,WeatherDisplay:10.37,2013-01-08 08:08:00,
2013-01-08 02:13:00,11.3,7.9,30.04,ESE,111,0.0,0.0,86,0.00,CLR,,0.00,0.0,WeatherDisplay:10.37,2013-01-08 08:13:00,
2013-01-08 02:18:00,11.1,7.7,30.04,ESE,111,0.0,0.0,86,0.00,CLR,,0.00,0.0,WeatherDisplay:10.37,2013-01-08 08:18:00,
2013-01-08 02:23:00,10.9,7.8,30.04,ESE,111,0.0,0.0,87,0.00,CLR,,0.00,0.0,WeatherDisplay:10.37,2013-01-08 08:23:00,
2013-01-08 02:28:00,10.7,7.3,30.05,ESE,111,0.0,0.0,86,0.00,CLR,,0.00,0.0,WeatherDisplay:10.37,2013-01-08 08:28:00,
2013-01-08 02:33:00,10.5,7.4,30.05,ESE,111,0.0,0.0,87,0.00,CLR,,0.00,0.0,WeatherDisplay:10.37,2013-01-08 08:33:00,
2013-01-08 02:38:00,10.4,7.3,30.04,ESE,111,0.0,0.0,87,0.00,CLR,,0.00,0.0,WeatherDisplay:10.37,2013-01-08 08:38:00,
2013-01-08 02:43:00,10.1,6.7,30.04,ESE,111,0.0,0.0,86,0.00,CLR,,0.00,0.0,WeatherDisplay:10.37,2013-01-08 08:43:00,
2013-01-08 02:48:00,10.0,6.6,30.04,ESE,111,0.0,0.0,86,0.00,CLR,,0.00,0.0,WeatherDisplay:10.37,2013-01-08 08:48:00,
2013-01-08 02:53:00,10.0,6.9,30.05,ESE,111,0.0,0.0,87,0.00,CLR,,0.00,0.0,WeatherDisplay:10.37,2013-01-08 08:53:00,
2013-01-08 02:58:00,10.0,6.9,30.05,ESE,111,0.0,0.0,87,0.00,CLR,,0.00,0.0,WeatherDisplay:10.37,2013-01-08 08:58:00,
2013-01-08 03:03:00,10.1,7.0,30.05,ESE,111,0.0,0.0,87,0.00,CLR,,0.00,0.0,WeatherDisplay:10.37,2013-01-08 09:03:00,
2013-01-08 03:09:00,10.1,7.0,30.04,ESE,111,0.0,0.0,87,0.00,CLR,,0.00,0.0,WeatherDisplay:10.37,2013-01-08 09:09:00,
2013-01-08 03:14:00,10.2,7.1,30.05,ESE,111,0.0,0.0,87,0.00,CLR,,0.00,0.0,WeatherDisplay:10.37,2013-01-08 09:14:00,
2013-01-08 03:19:00,10.1,7.0,30.04,ESE,111,0.0,0.0,87,0.00,CLR,,0.00,0.0,WeatherDisplay:10.37,2013-01-08 09:19:00,
2013-01-08 03:31:00,9.8,6.5,30.05,ESE,111,0.0,0.0,86,0.00,CLR,,0.00,0.0,WeatherDisplay:10.37,2013-01-08 09:31:00,
2013-01-08 03:36:00,9.8,6.5,30.05,ESE,111,0.0,0.0,86,0.00,CLR,,0.00,0.0,WeatherDisplay:10.37,2013-01-08 09:36:00,
2013-01-08 03:41:00,9.7,6.4,30.04,ESE,111,0.0,0.0,86,0.00,CLR,,0.00,0.0,WeatherDisplay:10.37,2013-01-08 09:41:00,
2013-01-08 03:46:00,9.6,6.3,30.05,ESE,111,0.0,0.0,86,0.00,CLR,,0.00,0.0,WeatherDisplay:10.37,2013-01-08 09:46:00,
2013-01-08 03:51:00,9.3,6.0,30.05,ESE,111,0.0,0.0,86,0.00,CLR,,0.00,0.0,WeatherDisplay:10.37,2013-01-08 09:51:00,
2013-01-08 03:56:00,9.1,5.8,30.05,ESE,111,0.0,0.0,86,0.00,CLR,,0.00,0.0,WeatherDisplay:10.37,2013-01-08 09:56:00,
2013-01-08 04:01:00,8.8,5.5,30.05,ESE,111,0.0,0.0,86,0.00,CLR,,0.00,0.0,WeatherDisplay:10.37,2013-01-08 10:01:00,
2013-01-08 04:06:00,8.5,5.2,30.05,ESE,111,0.0,0.0,86,0.00,CLR,,0.00,0.0,WeatherDisplay:10.37,2013-01-08 10:06:00,
2013-01-08 04:11:00,8.3,5.0,30.05,ESE,111,0.0,0.0,86,0.00,CLR,,0.00,0.0,WeatherDisplay:10.37,2013-01-08 10:11:00,
2013-01-08 04:16:00,8.1,4.8,30.05,ESE,111,0.0,0.0,86,0.00,CLR,,0.00,0.0,WeatherDisplay:10.37,2013-01-08 10:16:00,
2013-01-08 04:21:00,7.9,4.3,30.04,ESE,111,0.0,0.0,85,0.00,CLR,,0.00,0.0,WeatherDisplay:10.37,2013-01-08 10:21:00,
2013-01-08 04:26:00,7.8,4.2,30.04,ESE,111,0.0,0.0,85,0.00,CLR,,0.00,0.0,WeatherDisplay:10.37,2013-01-08 10:26:00,
2013-01-08 04:31:00,7.7,4.4,30.04,ESE,111,0.0,0.0,86,0.00,CLR,,0.00,0.0,WeatherDisplay:10.37,2013-01-08 10:31:00,
2013-01-08 04:36:00,7.6,4.3,30.05,ESE,111,0.0,0.0,86,0.00,CLR,,0.00,0.0,WeatherDisplay:10.37,2013-01-08 10:36:00,
2013-01-08 04:41:00,7.5,4.2,30.05,ESE,111,0.0,0.0,86,0.00,CLR,,0.00,0.0,WeatherDisplay:10.37,2013-01-08 10:41:00,
2013-01-08 04:46:00,7.4,4.1,30.05,ESE,111,0.0,0.0,86,0.00,CLR,,0.00,0.0,WeatherDisplay:10.37,2013-01-08 10:46:00,
2013-01-08 04:51:00,7.3,4.0,30.05,ESE,111,0.0,0.0,86,0.00,CLR,,0.00,0.0,WeatherDisplay:10.37,2013-01-08 10:51:00,
2013-01-08 04:56:00,7.2,3.9,30.04,ESE,111,0.0,0.0,86,0.00,CLR,,0.00,0.0,WeatherDisplay:10.37,2013-01-08 10:56:00,
2013-01-08 05:01:00,7.2,3.9,30.05,ESE,111,0.0,0.0,86,0.00,CLR,,0.00,0.0,WeatherDisplay:10.37,2013-01-08 11:01:00,
2013-01-08 05:06:00,7.1,3.8,30.05,ESE,111,0.0,0.0,86,0.00,CLR,,0.00,0.0,WeatherDisplay:10.37,2013-01-08 11:06:00,
2013-01-08 05:11:00,6.9,3.3,30.05,ESE,111,0.0,0.0,85,0.00,CLR,,0.00,0.0,WeatherDisplay:10.37,2013-01-08 11:11:00,
2013-01-08 05:16:00,7.0,3.7,30.05,ESE,111,0.0,0.0,86,0.00,CLR,,0.00,0.0,WeatherDisplay:10.37,2013-01-08 11:16:00,
2013-01-08 05:21:00,7.1,3.8,30.04,ESE,111,0.0,0.0,86,0.00,CLR,,0.00,0.0,WeatherDisplay:10.37,2013-01-08 11:21:00,
2013-01-08 05:26:00,7.3,4.0,30.05,ESE,111,0.0,0.0,86,0.00,CLR,,0.00,0.0,WeatherDisplay:10.37,2013-01-08 11:26:00,
2013-01-08 05:31:00,7.5,4.4,30.05,ESE,111,0.0,0.0,87,0.00,CLR,,0.00,0.0,WeatherDisplay:10.37,2013-01-08 11:31:00,
2013-01-08 05:36:00,7.8,4.7,30.05,ESE,111,0.0,0.0,87,0.00,CLR,,0.00,0.0,WeatherDisplay:10.37,2013-01-08 11:36:00,
2013-01-08 05:42:00,8.1,5.0,30.05,ESE,111,0.0,0.0,87,0.00,CLR,,0.00,0.0,WeatherDisplay:10.37,2013-01-08 11:42:00,
2013-01-08 05:47:00,8.5,5.4,30.04,ESE,111,0.0,0.0,87,0.00,CLR,,0.00,0.0,WeatherDisplay:10.37,2013-01-08 11:47:00,
2013-01-08 05:52:00,8.9,6.1,30.05,ESE,111,0.0,0.0,88,0.00,CLR,,0.00,0.0,WeatherDisplay:10.37,2013-01-08 11:52:00,
2013-01-08 05:57:00,9.4,6.6,30.04,ESE,111,0.0,0.0,88,0.00,CLR,,0.00,0.0,WeatherDisplay:10.37,2013-01-08 11:57:00,
2013-01-08 06:02:00,9.9,7.1,30.04,ESE,111,0.0,0.0,88,0.00,CLR,,0.00,0.0,WeatherDisplay:10.37,2013-01-08 12:02:00,
2013-01-08 06:07:00,10.4,7.6,30.04,ESE,111,0.0,0.0,88,0.00,CLR,,0.00,0.0,WeatherDisplay:10.37,2013-01-08 12:07:00,
2013-01-08 06:12:00,10.8,7.7,30.05,ESE,111,0.0,0.0,87,0.00,CLR,,0.00,0.0,WeatherDisplay:10.37,2013-01-08 12:12:00,
2013-01-08 06:17:00,11.0,7.9,30.05,ESE,111,0.0,0.0,87,0.00,CLR,,0.00,0.0,WeatherDisplay:10.37,2013-01-08 12:17:00,
2013-01-08 06:22:00,11.2,8.3,30.04,ESE,111,0.0,0.0,88,0.00,CLR,,0.00,0.0,WeatherDisplay:10.37,2013-01-08 12:22:00,
2013-01-08 06:28:00,11.5,8.9,30.05,ESE,111,0.0,0.0,89,0.00,CLR,,0.00,0.0,WeatherDisplay:10.37,2013-01-08 12:28:00,
2013-01-08 06:33:00,11.9,9.3,30.05,ESE,111,0.0,0.0,89,0.00,CLR,,0.00,0.0,WeatherDisplay:10.37,2013-01-08 12:33:00,
2013-01-08 06:38:00,12.2,9.8,30.05,ESE,111,0.0,0.0,90,0.00,CLR,,0.00,0.0,WeatherDisplay:10.37,2013-01-08 12:38:00,
2013-01-08 06:43:00,12.5,10.1,30.06,ESE,111,0.0,0.0,90,0.00,CLR,,0.00,0.0,WeatherDisplay:10.37,2013-01-08 12:43:00,
2013-01-08 06:48:00,12.6,10.0,30.06,ESE,111,0.0,0.0,89,0.00,CLR,,0.00,0.0,WeatherDisplay:10.37,2013-01-08 12:48:00,
2013-01-08 06:53:00,12.7,10.3,30.06,ESE,111,0.0,0.0,90,0.00,CLR,,0.00,0.0,WeatherDisplay:10.37,2013-01-08 12:53:00,
2013-01-08 06:58:00,12.8,10.2,30.06,ESE,111,0.0,0.0,89,0.00,CLR,,0.00,0.0,WeatherDisplay:10.37,2013-01-08 12:58:00,
2013-01-08 07:03:00,13.1,10.7,30.06,ESE,111,0.0,0.0,90,0.00,CLR,,0.00,0.0,WeatherDisplay:10.37,2013-01-08 13:03:00,
2013-01-08 07:08:00,13.5,11.1,30.06,ESE,111,0.0,0.0,90,0.00,CLR,,0.00,0.0,WeatherDisplay:10.37,2013-01-08 13:08:00,
2013-01-08 07:13:00,14.0,11.6,30.06,ESE,111,0.0,0.0,90,0.00,CLR,,0.00,0.0,WeatherDisplay:10.37,2013-01-08 13:13:00,
2013-01-08 07:18:00,14.5,12.1,30.06,ESE,110,0.0,0.0,90,0.00,CLR,,0.00,0.0,WeatherDisplay:10.37,2013-01-08 13:18:00,
2013-01-08 07:23:00,14.9,12.5,30.06,ESE,111,0.0,0.0,90,0.00,CLR,,0.00,0.0,WeatherDisplay:10.37,2013-01-08 13:23:00,
2013-01-08 07:28:00,15.3,12.9,30.06,ESE,111,0.0,0.0,90,0.00,CLR,,0.00,0.0,WeatherDisplay:10.37,2013-01-08 13:28:00,
2013-01-08 07:33:00,15.8,13.4,30.06,ESE,111,0.0,0.0,90,0.00,CLR,,0.00,0.0,WeatherDisplay:10.37,2013-01-08 13:33:00,
2013-01-08 07:38:00,16.2,13.8,30.06,ESE,111,0.0,0.0,90,0.00,CLR,,0.00,0.0,WeatherDisplay:10.37,2013-01-08 13:38:00,
2013-01-08 07:43:00,16.5,14.1,30.07,ESE,111,0.0,0.0,90,0.00,CLR,,0.00,0.0,WeatherDisplay:10.37,2013-01-08 13:43:00,
2013-01-08 07:48:00,16.8,14.4,30.07,ESE,111,2.3,2.3,90,0.00,CLR,,0.00,0.0,WeatherDisplay:10.37,2013-01-08 13:48:00,
2013-01-08 07:53:00,17.2,15.0,30.07,SSE,148,2.3,2.3,91,0.00,CLR,,0.00,5.0,WeatherDisplay:10.37,2013-01-08 13:53:00,
2013-01-08 07:58:00,17.3,15.1,30.07,South,181,0.0,0.0,91,0.00,CLR,,0.00,9.0,WeatherDisplay:10.37,2013-01-08 13:58:00,
2013-01-08 08:03:00,17.5,15.3,30.07,South,181,0.0,0.0,91,0.00,CLR,,0.00,11.0,WeatherDisplay:10.37,2013-01-08 14:03:00,
2013-01-08 08:08:00,17.6,15.4,30.07,South,181,0.0,0.0,91,0.00,CLR,,0.00,16.0,WeatherDisplay:10.37,2013-01-08 14:08:00,
2013-01-08 08:13:00,17.7,15.5,30.08,South,181,1.1,0.0,91,0.00,CLR,,0.00,18.0,WeatherDisplay:10.37,2013-01-08 14:13:00,
2013-01-08 08:18:00,17.9,15.5,30.08,South,180,2.3,2.3,90,0.00,CLR,,0.00,23.0,WeatherDisplay:10.37,2013-01-08 14:18:00,
2013-01-08 08:23:00,17.9,15.5,30.08,South,177,1.1,1.1,90,0.00,CLR,,0.00,23.0,WeatherDisplay:10.37,2013-01-08 14:23:00,
2013-01-08 08:29:00,18.0,15.6,30.09,SSE,166,1.1,1.1,90,0.00,CLR,,0.00,26.0,WeatherDisplay:10.37,2013-01-08 14:29:00,
2013-01-08 08:34:00,18.2,16.0,30.09,SE,140,3.5,3.5,91,0.00,CLR,,0.00,32.0,WeatherDisplay:10.37,2013-01-08 14:34:00,
2013-01-08 08:39:00,18.3,15.9,30.09,South,175,3.5,3.5,90,0.00,CLR,,0.00,37.0,WeatherDisplay:10.37,2013-01-08 14:39:00,
2013-01-08 08:44:00,18.2,15.8,30.08,SSE,161,1.1,1.1,90,0.00,CLR,,0.00,44.0,WeatherDisplay:10.37,2013-01-08 14:44:00,
2013-01-08 08:49:00,18.3,15.9,30.08,SSE,161,1.1,1.1,90,0.00,CLR,,0.00,44.0,WeatherDisplay:10.37,2013-01-08 14:49:00,
2013-01-08 08:54:00,18.4,16.0,30.09,South,183,0.0,0.0,90,0.00,CLR,,0.00,46.0,WeatherDisplay:10.37,2013-01-08 14:54:00,
2013-01-08 08:59:00,18.6,16.2,30.08,South,185,0.0,0.0,90,0.00,CLR,,0.00,40.0,WeatherDisplay:10.37,2013-01-08 14:59:00,
2013-01-08 09:04:00,18.8,16.4,30.08,South,171,1.1,0.0,90,0.00,CLR,,0.00,44.0,WeatherDisplay:10.37,2013-01-08 15:04:00,
2013-01-08 09:09:00,18.9,16.5,30.08,South,171,0.0,0.0,90,0.00,CLR,,0.00,42.0,WeatherDisplay:10.37,2013-01-08 15:09:00,
2013-01-08 09:14:00,19.0,16.6,30.09,South,172,2.3,2.3,90,0.00,CLR,,0.00,47.0,WeatherDisplay:10.37,2013-01-08 15:14:00,
2013-01-08 09:19:00,19.1,16.7,30.09,SSW,203,2.3,2.3,90,0.00,CLR,,0.00,56.0,WeatherDisplay:10.37,2013-01-08 15:19:00,
2013-01-08 09:31:00,19.5,17.0,30.08,SE,136,2.3,0.0,90,0.00,CLR,,0.00,88.0,WeatherDisplay:10.37,2013-01-08 15:31:00,
2013-01-08 09:36:00,19.8,17.6,30.08,SE,136,0.0,0.0,91,0.00,CLR,,0.00,104.0,WeatherDisplay:10.37,2013-01-08 15:36:00,
2013-01-08 09:41:00,20.1,17.9,30.08,SSE,148,2.3,2.3,91,0.00,CLR,,0.00,91.0,WeatherDisplay:10.37,2013-01-08 15:41:00,
2013-01-08 09:46:00,20.5,18.3,30.08,SSE,149,1.1,1.1,91,0.00,CLR,,0.00,77.0,WeatherDisplay:10.37,2013-01-08 15:46:00,
2013-01-08 09:51:00,20.9,18.7,30.08,SSE,157,1.1,1.1,91,0.00,CLR,,0.00,86.0,WeatherDisplay:10.37,2013-01-08 15:51:00,
2013-01-08 09:56:00,21.1,18.9,30.08,SSE,157,0.0,0.0,91,0.00,CLR,,0.00,93.0,WeatherDisplay:10.37,2013-01-08 15:56:00,
2013-01-08 10:01:00,21.4,19.2,30.08,South,169,0.0,0.0,91,0.00,CLR,,0.00,84.0,WeatherDisplay:10.37,2013-01-08 16:01:00,
2013-01-08 10:06:00,21.8,19.6,30.08,South,169,1.1,1.1,91,0.00,CLR,,0.00,79.0,WeatherDisplay:10.37,2013-01-08 16:06:00,
2013-01-08 10:11:00,22.2,20.0,30.08,South,169,2.3,2.3,91,0.00,CLR,,0.00,60.0,WeatherDisplay:10.37,2013-01-08 16:11:00,
2013-01-08 10:16:00,22.5,20.3,30.08,South,169,1.1,0.0,91,0.00,CLR,,0.00,47.0,WeatherDisplay:10.37,2013-01-08 16:16:00,
2013-01-08 10:21:00,22.6,20.1,30.07,South,169,1.0,1.0,90,0.00,CLR,,0.00,44.0,WeatherDisplay:10.37,2013-01-08 16:21:00,
2013-01-08 10:26:00,22.6,20.1,30.07,South,169,0.0,0.0,90,0.00,CLR,,0.00,51.0,WeatherDisplay:10.37,2013-01-08 16:26:00,
2013-01-08 10:31:00,22.7,20.2,30.07,South,169,0.0,0.1,90,0.00,CLR,,0.00,70.0,WeatherDisplay:10.37,2013-01-08 16:31:00,
2013-01-08 10:36:00,22.8,20.3,30.07,South,169,0.0,0.0,90,0.00,CLR,,0.00,84.0,WeatherDisplay:10.37,2013-01-08 16:36:00,
2013-01-08 10:42:00,22.9,20.7,30.07,South,169,1.1,0.0,91,0.00,CLR,,0.00,102.0,WeatherDisplay:10.37,2013-01-08 16:42:00,
2013-01-08 10:47:00,23.1,20.9,30.07,South,169,0.0,0.0,91,0.00,CLR,,0.00,109.0,WeatherDisplay:10.37,2013-01-08 16:47:00,
2013-01-08 10:52:00,23.4,21.2,30.06,South,169,0.0,0.0,91,0.00,CLR,,0.00,113.0,WeatherDisplay:10.37,2013-01-08 16:52:00,
2013-01-08 10:57:00,23.7,21.5,30.05,South,169,1.1,0.0,91,0.00,CLR,,0.00,114.0,WeatherDisplay:10.37,2013-01-08 16:57:00,
2013-01-08 11:02:00,24.0,21.8,30.05,South,169,1.1,1.1,91,0.00,CLR,,0.00,116.0,WeatherDisplay:10.37,2013-01-08 17:02:00,
2013-01-08 11:07:00,24.2,22.0,30.05,South,169,1.1,1.1,91,0.00,CLR,,0.00,130.0,WeatherDisplay:10.37,2013-01-08 17:07:00,
2013-01-08 11:12:00,24.5,22.2,30.04,South,169,0.0,0.0,91,0.00,CLR,,0.00,125.0,WeatherDisplay:10.37,2013-01-08 17:12:00,
2013-01-08 11:17:00,25.0,23.0,30.03,South,169,0.0,0.0,92,0.00,CLR,,0.00,139.0,WeatherDisplay:10.37,2013-01-08 17:17:00,
2013-01-08 11:22:00,25.4,23.1,30.03,South,169,2.3,2.3,91,0.00,CLR,,0.00,156.0,WeatherDisplay:10.37,2013-01-08 17:22:00,
2013-01-08 11:27:00,25.8,23.5,30.03,South,169,1.1,1.1,91,0.00,CLR,,0.00,156.0,WeatherDisplay:10.37,2013-01-08 17:27:00,
2013-01-08 11:32:00,26.1,23.8,30.03,SSW,202,0.0,0.4,91,0.00,CLR,,0.00,123.0,WeatherDisplay:10.37,2013-01-08 17:32:00,
2013-01-08 11:37:00,26.5,24.2,30.03,SSW,202,0.0,0.0,91,0.00,CLR,,0.00,132.0,WeatherDisplay:10.37,2013-01-08 17:37:00,
2013-01-08 11:42:00,27.0,24.5,30.02,SSW,202,1.1,0.0,90,0.00,CLR,,0.00,139.0,WeatherDisplay:10.37,2013-01-08 17:42:00,
2013-01-08 11:47:00,27.4,24.9,30.02,SSW,202,0.0,0.0,90,0.00,CLR,,0.00,229.0,WeatherDisplay:10.37,2013-01-08 17:47:00,
2013-01-08 11:52:00,27.9,25.3,30.02,South,169,2.3,2.3,90,0.00,CLR,,0.00,165.0,WeatherDisplay:10.37,2013-01-08 17:52:00,
2013-01-08 11:57:00,28.4,25.8,30.01,South,169,1.1,0.0,90,0.00,CLR,,0.00,160.0,WeatherDisplay:10.37,2013-01-08 17:57:00,
2013-01-08 12:02:00,28.7,26.1,30.00,SSE,168,2.3,2.3,90,0.00,CLR,,0.00,153.0,WeatherDisplay:10.37,2013-01-08 18:02:00,
2013-01-08 12:07:00,29.0,26.4,30.00,SSE,162,1.0,1.0,90,0.00,CLR,,0.00,165.0,WeatherDisplay:10.37,2013-01-08 18:07:00,
2013-01-08 12:12:00,29.4,26.8,30.00,SSE,167,1.1,1.1,90,0.00,CLR,,0.00,139.0,WeatherDisplay:10.37,2013-01-08 18:12:00,
2013-01-08 12:17:00,29.7,27.1,30.00,SSE,167,1.1,1.1,90,0.00,CLR,,0.00,132.0,WeatherDisplay:10.37,2013-01-08 18:17:00,
2013-01-08 12:22:00,30.1,27.5,29.99,SSE,161,0.0,0.0,90,0.00,CLR,,0.00,134.0,WeatherDisplay:10.37,2013-01-08 18:22:00,
2013-01-08 12:30:00,30.7,27.8,29.98,SSE,161,2.3,2.3,89,0.00,CLR,,0.00,95.0,WeatherDisplay:10.37,2013-01-08 18:30:00,
2013-01-08 12:35:00,31.0,27.9,29.99,SSE,161,2.3,2.3,88,0.00,CLR,,0.00,72.0,WeatherDisplay:10.37,2013-01-08 18:35:00,
2013-01-08 12:40:00,31.3,28.2,29.98,South,169,1.1,1.1,88,0.00,CLR,,0.00,65.0,WeatherDisplay:10.37,2013-01-08 18:40:00,
2013-01-08 12:45:00,31.5,28.1,29.98,ESE,117,2.3,2.3,87,0.00,CLR,,0.00,121.0,WeatherDisplay:10.37,2013-01-08 18:45:00,
2013-01-08 12:50:00,31.7,28.0,29.98,ESE,117,1.1,1.1,86,0.00,CLR,,0.00,267.0,WeatherDisplay:10.37,2013-01-08 18:50:00,
2013-01-08 12:55:00,31.8,28.1,29.97,ESE,118,2.3,2.3,86,0.00,CLR,,0.00,107.0,WeatherDisplay:10.37,2013-01-08 18:55:00,
2013-01-08 13:00:00,31.9,27.9,29.97,East,100,1.1,1.1,85,0.00,CLR,,0.00,83.0,WeatherDisplay:10.37,2013-01-08 19:00:00,
2013-01-08 13:05:00,32.0,28.0,29.96,SE,127,2.3,2.3,85,0.00,CLR,,0.00,98.0,WeatherDisplay:10.37,2013-01-08 19:05:00,
2013-01-08 13:10:00,32.1,28.1,29.96,SE,127,3.5,3.5,85,0.00,CLR,,0.00,79.0,WeatherDisplay:10.37,2013-01-08 19:10:00,
2013-01-08 13:15:00,32.3,28.3,29.96,SE,128,2.3,2.3,85,0.00,CLR,,0.00,72.0,WeatherDisplay:10.37,2013-01-08 19:15:00,
2013-01-08 13:20:00,32.5,28.2,29.95,East,88,2.3,2.3,84,0.00,CLR,,0.00,107.0,WeatherDisplay:10.37,2013-01-08 19:20:00,
2013-01-08 13:25:00,32.8,28.2,29.95,ESE,110,1.1,1.1,83,0.00,CLR,,0.00,102.0,WeatherDisplay:10.37,2013-01-08 19:25:00,
2013-01-08 13:30:00,33.1,28.2,29.94,South,189,3.5,3.5,82,0.00,CLR,,0.00,93.0,WeatherDisplay:10.37,2013-01-08 19:30:00,
2013-01-08 13:35:00,33.5,28.3,29.94,SSE,155,3.5,3.5,81,0.00,CLR,,0.00,104.0,WeatherDisplay:10.37,2013-01-08 19:35:00,
2013-01-08 13:40:00,33.8,28.3,29.93,SSE,152,3.5,3.5,80,0.00,CLR,,0.00,95.0,WeatherDisplay:10.37,2013-01-08 19:40:00,
2013-01-08 13:45:00,34.1,28.3,29.93,SSE,165,1.1,1.1,79,0.00,CLR,,0.00,100.0,WeatherDisplay:10.37,2013-01-08 19:45:00,
2013-01-08 13:50:00,34.5,28.3,29.93,SSE,166,2.3,2.3,78,0.00,CLR,,0.00,95.0,WeatherDisplay:10.37,2013-01-08 19:50:00,
2013-01-08 13:55:00,34.9,28.4,29.93,South,170,2.3,2.3,77,0.00,CLR,,0.00,72.0,WeatherDisplay:10.37,2013-01-08 19:55:00,
2013-01-08 14:00:00,35.3,28.2,29.93,SSE,163,2.3,2.3,75,0.00,CLR,,0.00,105.0,WeatherDisplay:10.37,2013-01-08 20:00:00,
2013-01-08 14:05:00,35.8,28.6,29.93,SSE,166,3.5,3.5,75,0.00,CLR,,0.00,102.0,WeatherDisplay:10.37,2013-01-08 20:05:00,
2013-01-08 14:10:00,36.2,28.7,29.93,SSE,159,3.5,3.5,74,0.00,CLR,,0.00,86.0,WeatherDisplay:10.37,2013-01-08 20:10:00,
2013-01-08 14:15:00,36.6,28.4,29.93,SSE,159,3.5,3.5,72,0.00,CLR,,0.00,91.0,WeatherDisplay:10.37,2013-01-08 20:15:00,
2013-01-08 14:20:00,37.0,28.5,29.92,South,183,2.3,2.3,71,0.00,CLR,,0.00,83.0,WeatherDisplay:10.37,2013-01-08 20:20:00,
2013-01-08 14:25:00,37.2,28.3,29.91,SSE,159,1.1,1.1,70,0.00,CLR,,0.00,81.0,WeatherDisplay:10.37,2013-01-08 20:25:00,
2013-01-08 14:30:00,37.4,28.2,29.91,WSW,237,4.6,4.6,69,0.00,CLR,,0.00,91.0,WeatherDisplay:10.37,2013-01-08 20:30:00,
2013-01-08 14:35:00,37.7,28.1,29.91,ESE,116,2.3,2.3,68,0.00,CLR,,0.00,76.0,WeatherDisplay:10.37,2013-01-08 20:35:00,
2013-01-08 14:40:00,37.9,28.3,29.91,SE,132,3.5,3.5,68,0.00,CLR,,0.00,47.0,WeatherDisplay:10.37,2013-01-08 20:40:00,
2013-01-08 14:45:00,38.2,28.2,29.91,SE,141,3.0,3.0,67,0.00,CLR,,0.00,58.0,WeatherDisplay:10.37,2013-01-08 20:45:00,
2013-01-08 14:50:00,38.3,27.9,29.91,SE,136,2.3,2.3,66,0.00,CLR,,0.00,67.0,WeatherDisplay:10.37,2013-01-08 20:50:00,
2013-01-08 14:55:00,38.5,28.9,29.90,ESE,114,3.0,3.0,68,0.00,CLR,,0.00,60.0,WeatherDisplay:10.37,2013-01-08 20:55:00,
2013-01-08 15:00:00,38.4,28.4,29.90,SE,130,0.0,0.1,67,0.00,CLR,,0.00,44.0,WeatherDisplay:10.37,2013-01-08 21:00:00,
2013-01-08 15:05:00,38.3,27.9,29.90,SSE,159,3.0,3.0,66,0.00,CLR,,0.00,49.0,WeatherDisplay:10.37,2013-01-08 21:05:00,
2013-01-08 15:10:00,38.5,28.1,29.90,SSE,167,3.0,3.0,66,0.00,CLR,,0.00,51.0,WeatherDisplay:10.37,2013-01-08 21:10:00,
2013-01-08 15:15:00,38.6,28.2,29.89,South,171,4.0,4.0,66,0.00,CLR,,0.00,56.0,WeatherDisplay:10.37,2013-01-08 21:15:00,
2013-01-08 15:20:00,38.7,28.3,29.89,SE,145,2.3,2.3,66,0.00,CLR,,0.00,47.0,WeatherDisplay:10.37,2013-01-08 21:20:00,
2013-01-08 15:25:00,38.8,28.0,29.89,South,177,2.3,2.3,65,0.00,CLR,,0.00,53.0,WeatherDisplay:10.37,2013-01-08 21:25:00,
2013-01-08 15:30:00,38.9,28.1,29.89,SE,144,10.4,10.4,65,0.00,CLR,,0.00,49.0,WeatherDisplay:10.37,2013-01-08 21:30:00,
2013-01-08 15:35:00,39.1,28.7,29.89,SW,221,2.3,2.3,66,0.00,CLR,,0.00,37.0,WeatherDisplay:10.37,2013-01-08 21:35:00,
2013-01-08 15:40:00,39.1,28.7,29.89,SSW,201,2.3,2.3,66,0.00,CLR,,0.00,32.0,WeatherDisplay:10.37,2013-01-08 21:40:00,
2013-01-08 15:45:00,38.8,28.8,29.89,ESE,121,3.5,3.5,67,0.00,CLR,,0.00,30.0,WeatherDisplay:10.37,2013-01-08 21:45:00,
2013-01-08 15:50:00,38.5,28.9,29.89,South,182,5.8,5.8,68,0.00,CLR,,0.00,25.0,WeatherDisplay:10.37,2013-01-08 21:50:00,
2013-01-08 15:55:00,38.3,28.7,29.89,ESE,109,6.9,6.9,68,0.00,CLR,,0.00,23.0,WeatherDisplay:10.37,2013-01-08 21:55:00,
2013-01-08 16:00:00,38.0,28.7,29.89,SW,229,6.9,6.9,69,0.00,CLR,,0.00,25.0,WeatherDisplay:10.37,2013-01-08 22:00:00,
2013-01-08 16:06:00,37.8,28.9,29.89,SSE,161,10.4,10.4,70,0.00,CLR,,0.00,25.0,WeatherDisplay:10.37,2013-01-08 22:06:00,
2013-01-08 16:11:00,37.7,28.8,29.89,SSE,165,3.5,3.5,70,0.00,CLR,,0.00,18.0,WeatherDisplay:10.37,2013-01-08 22:11:00,
2013-01-08 16:16:00,37.4,28.5,29.89,WSW,247,3.5,3.5,70,0.00,CLR,,0.00,14.0,WeatherDisplay:10.37,2013-01-08 22:16:00,
2013-01-08 16:21:00,37.2,28.3,29.89,ESE,115,3.5,3.5,70,0.00,CLR,,0.00,12.0,WeatherDisplay:10.37,2013-01-08 22:21:00,
2013-01-08 16:26:00,37.0,28.5,29.88,SSE,158,3.5,3.5,71,0.00,CLR,,0.00,7.0,WeatherDisplay:10.37,2013-01-08 22:26:00,
2013-01-08 16:31:00,36.7,28.5,29.87,East,85,3.5,3.5,72,0.00,CLR,,0.00,0.0,WeatherDisplay:10.37,2013-01-08 22:31:00,
2013-01-08 16:36:00,36.4,28.2,29.87,SE,140,4.6,4.6,72,0.00,CLR,,0.00,0.0,WeatherDisplay:10.37,2013-01-08 22:36:00,
2013-01-08 16:41:00,36.2,28.4,29.87,SE,133,8.1,8.1,73,0.00,CLR,,0.00,0.0,WeatherDisplay:10.37,2013-01-08 22:41:00,
2013-01-08 16:46:00,36.1,28.3,29.87,South,172,6.9,6.9,73,0.00,CLR,,0.00,0.0,WeatherDisplay:10.37,2013-01-08 22:46:00,
2013-01-08 16:51:00,35.9,28.4,29.86,ESE,123,3.5,3.5,74,0.00,CLR,,0.00,0.0,WeatherDisplay:10.37,2013-01-08 22:51:00,
2013-01-08 16:56:00,35.7,28.2,29.85,ESE,114,4.6,4.6,74,0.00,CLR,,0.00,0.0,WeatherDisplay:10.37,2013-01-08 22:56:00,
2013-01-08 17:01:00,35.6,28.1,29.85,South,169,3.5,3.5,74,0.00,CLR,,0.00,0.0,WeatherDisplay:10.37,2013-01-08 23:01:00,
2013-01-08 17:06:00,35.4,27.9,29.85,SE,127,9.2,9.2,74,0.00,CLR,,0.00,0.0,WeatherDisplay:10.37,2013-01-08 23:06:00,
2013-01-08 17:11:00,35.3,27.8,29.85,SE,146,3.5,3.5,74,0.00,CLR,,0.00,0.0,WeatherDisplay:10.37,2013-01-08 23:11:00,
2013-01-08 17:16:00,35.2,27.7,29.84,SSE,163,5.8,5.8,74,0.00,CLR,,0.00,0.0,WeatherDisplay:10.37,2013-01-08 23:16:00,
2013-01-08 17:21:00,35.0,27.5,29.84,SE,146,1.1,1.1,74,0.00,CLR,,0.00,0.0,WeatherDisplay:10.37,2013-01-08 23:21:00,
2013-01-08 17:26:00,34.8,27.7,29.84,SSE,158,4.6,4.6,75,0.00,CLR,,0.00,0.0,WeatherDisplay:10.37,2013-01-08 23:26:00,
2013-01-08 17:31:00,34.7,27.6,29.84,SSE,163,4.6,4.6,75,0.00,CLR,,0.00,0.0,WeatherDisplay:10.37,2013-01-08 23:31:00,
2013-01-08 17:36:00,34.6,27.5,29.84,ESE,117,3.5,3.5,75,0.00,CLR,,0.00,0.0,WeatherDisplay:10.37,2013-01-08 23:36:00,
2013-01-08 17:41:00,34.5,27.7,29.84,South,170,3.5,3.5,76,0.00,CLR,,0.00,0.0,WeatherDisplay:10.37,2013-01-08 23:41:00,
2013-01-08 17:46:00,34.4,27.6,29.83,SE,144,2.3,2.3,76,0.00,CLR,,0.00,0.0,WeatherDisplay:10.37,2013-01-08 23:46:00,
2013-01-08 17:51:00,34.3,27.8,29.83,SE,136,3.5,3.5,77,0.00,CLR,,0.00,0.0,WeatherDisplay:10.37,2013-01-08 23:51:00,
2013-01-08 17:56:00,34.2,27.7,29.83,SSE,154,2.3,2.3,77,0.00,CLR,,0.00,0.0,WeatherDisplay:10.37,2013-01-08 23:56:00,
2013-01-08 18:01:00,34.2,27.7,29.83,SSE,163,3.5,3.5,77,0.00,CLR,,0.00,0.0,WeatherDisplay:10.37,2013-01-09 00:01:00,
2013-01-08 18:06:00,34.2,27.7,29.83,SSE,150,11.5,11.5,77,0.00,CLR,,0.00,0.0,WeatherDisplay:10.37,2013-01-09 00:06:00,
2013-01-08 18:11:00,34.1,27.6,29.83,SE,139,6.9,6.9,77,0.00,CLR,,0.00,0.0,WeatherDisplay:10.37,2013-01-09 00:11:00,
2013-01-08 18:16:00,34.2,27.7,29.83,SSE,153,2.3,0.0,77,0.00,BKN,,0.00,0.0,WeatherDisplay:10.37,2013-01-09 00:16:00,
2013-01-08 18:21:00,34.2,28.1,29.83,SE,146,3.5,3.5,78,0.00,BKN,,0.00,0.0,WeatherDisplay:10.37,2013-01-09 00:21:00,
2013-01-08 18:29:00,34.2,28.1,29.84,SSE,159,5.0,5.0,78,0.00,BKN,,0.00,0.0,WeatherDisplay:10.37,2013-01-09 00:29:00,
2013-01-08 18:34:00,34.3,28.2,29.83,East,90,3.5,3.5,78,0.00,BKN,,0.00,0.0,WeatherDisplay:10.37,2013-01-09 00:34:00,
2013-01-08 18:39:00,34.4,28.2,29.83,SSE,154,4.6,4.6,78,0.00,BKN,,0.00,0.0,WeatherDisplay:10.37,2013-01-09 00:39:00,
2013-01-08 18:44:00,34.6,28.1,29.83,South,169,3.5,3.5,77,0.00,BKN,,0.00,0.0,WeatherDisplay:10.37,2013-01-09 00:44:00,
2013-01-08 18:49:00,34.6,28.4,29.82,SSE,149,6.0,6.0,78,0.00,BKN,,0.00,0.0,WeatherDisplay:10.37,2013-01-09 00:49:00,
2013-01-08 18:54:00,34.6,28.4,29.82,East,98,8.1,8.1,78,0.00,BKN,,0.00,0.0,WeatherDisplay:10.37,2013-01-09 00:54:00,
2013-01-08 18:59:00,34.7,28.5,29.82,SW,235,3.5,3.5,78,0.00,BKN,,0.00,0.0,WeatherDisplay:10.37,2013-01-09 00:59:00,
2013-01-08 19:04:00,34.7,28.5,29.82,South,186,6.9,6.9,78,0.00,OVC,,0.00,0.0,WeatherDisplay:10.37,2013-01-09 01:04:00,
2013-01-08 19:09:00,34.8,28.6,29.82,SW,231,2.3,2.3,78,0.00,OVC,,0.00,0.0,WeatherDisplay:10.37,2013-01-09 01:09:00,
2013-01-08 19:14:00,34.8,28.6,29.82,SW,227,8.1,8.1,78,0.00,OVC,,0.00,0.0,WeatherDisplay:10.37,2013-01-09 01:14:00,
2013-01-08 19:19:00,34.8,28.6,29.82,SSW,209,2.3,2.3,78,0.00,OVC,,0.00,0.0,WeatherDisplay:10.37,2013-01-09 01:19:00,
2013-01-08 19:24:00,34.8,28.6,29.82,SE,138,8.1,8.1,78,0.00,OVC,,0.00,0.0,WeatherDisplay:10.37,2013-01-09 01:24:00,
2013-01-08 19:29:00,34.8,28.6,29.82,SSE,165,10.4,10.4,78,0.00,OVC,,0.00,0.0,WeatherDisplay:10.37,2013-01-09 01:29:00,
2013-01-08 19:34:00,34.8,28.6,29.82,WNW,296,4.6,4.6,78,0.00,OVC,,0.00,0.0,WeatherDisplay:10.37,2013-01-09 01:34:00,
2013-01-08 19:39:00,34.7,28.5,29.82,SSW,206,6.9,6.9,78,0.00,OVC,,0.00,0.0,WeatherDisplay:10.37,2013-01-09 01:39:00,
2013-01-08 19:44:00,34.7,28.5,29.82,SSW,194,3.5,3.5,78,0.00,OVC,,0.00,0.0,WeatherDisplay:10.37,2013-01-09 01:44:00,
2013-01-08 19:49:00,34.7,28.9,29.82,ESE,123,5.8,5.8,79,0.00,OVC,,0.00,0.0,WeatherDisplay:10.37,2013-01-09 01:49:00,
2013-01-08 19:54:00,34.6,28.8,29.82,SE,143,6.9,6.9,79,0.00,OVC,,0.00,0.0,WeatherDisplay:10.37,2013-01-09 01:54:00,
2013-01-08 19:59:00,34.6,28.8,29.81,SSE,161,3.5,3.5,79,0.00,OVC,,0.00,0.0,WeatherDisplay:10.37,2013-01-09 01:59:00,
2013-01-08 20:04:00,34.5,28.7,29.81,West,261,3.5,3.5,79,0.00,OVC,,0.00,0.0,WeatherDisplay:10.37,2013-01-09 02:04:00,
2013-01-08 20:09:00,34.4,28.9,29.81,WSW,246,4.0,4.0,80,0.00,OVC,,0.00,0.0,WeatherDisplay:10.37,2013-01-09 02:09:00,
2013-01-08 20:14:00,34.3,28.8,29.82,ESE,117,4.6,4.6,80,0.00,OVC,,0.00,0.0,WeatherDisplay:10.37,2013-01-09 02:14:00,
2013-01-08 20:19:00,34.3,29.1,29.81,SSE,163,3.5,3.5,81,0.00,OVC,,0.00,0.0,WeatherDisplay:10.37,2013-01-09 02:19:00,
2013-01-08 20:24:00,34.4,28.9,29.81,SSW,200,1.1,1.1,80,0.00,OVC,,0.00,0.0,WeatherDisplay:10.37,2013-01-09 02:24:00,
2013-01-08 20:29:00,34.5,29.3,29.81,SE,136,2.3,0.0,81,0.00,OVC,,0.00,0.0,WeatherDisplay:10.37,2013-01-09 02:29:00,
2013-01-08 20:34:00,34.5,29.3,29.81,SSW,208,2.3,2.3,81,0.00,OVC,,0.00,0.0,WeatherDisplay:10.37,2013-01-09 02:34:00,
2013-01-08 20:39:00,34.6,29.4,29.81,SSW,210,10.4,10.4,81,0.00,OVC,,0.00,0.0,WeatherDisplay:10.37,2013-01-09 02:39:00,
2013-01-08 20:44:00,34.7,29.5,29.81,SSW,198,3.5,3.5,81,0.00,OVC,,0.00,0.0,WeatherDisplay:10.37,2013-01-09 02:44:00,
2013-01-08 20:49:00,34.7,29.5,29.81,SE,144,4.6,4.6,81,0.00,OVC,,0.00,0.0,WeatherDisplay:10.37,2013-01-09 02:49:00,
2013-01-08 20:54:00,34.8,29.6,29.81,South,171,8.1,8.1,81,0.00,OVC,,0.00,0.0,WeatherDisplay:10.37,2013-01-09 02:54:00,
2013-01-08 20:59:00,34.7,29.5,29.81,SSW,200,3.5,3.5,81,0.00,OVC,,0.00,0.0,WeatherDisplay:10.37,2013-01-09 02:59:00,
2013-01-08 21:04:00,34.7,29.5,29.81,WSW,248,1.1,1.1,81,0.00,OVC,,0.00,0.0,WeatherDisplay:10.37,2013-01-09 03:04:00,
2013-01-08 21:09:00,34.7,29.5,29.80,SW,228,2.3,2.3,81,0.00,OVC,,0.00,0.0,WeatherDisplay:10.37,2013-01-09 03:09:00,
2013-01-08 21:14:00,34.6,29.7,29.80,SSW,196,3.5,3.5,82,0.00,OVC,,0.00,0.0,WeatherDisplay:10.37,2013-01-09 03:14:00,
2013-01-08 21:19:00,34.6,29.7,29.80,SE,142,3.5,3.5,82,0.00,OVC,,0.00,0.0,WeatherDisplay:10.37,2013-01-09 03:19:00,
2013-01-08 21:25:00,34.6,29.7,29.80,NW,321,3.5,3.5,82,0.00,OVC,,0.00,0.0,WeatherDisplay:10.37,2013-01-09 03:25:00,
2013-01-08 21:30:00,34.6,29.7,29.80,SSW,211,4.6,4.6,82,0.00,OVC,,0.00,0.0,WeatherDisplay:10.37,2013-01-09 03:30:00,
2013-01-08 21:35:00,34.7,29.8,29.80,South,172,5.8,5.8,82,0.00,OVC,,0.00,0.0,WeatherDisplay:10.37,2013-01-09 03:35:00,
2013-01-08 21:40:00,34.7,30.1,29.80,South,184,2.3,2.3,83,0.00,OVC,,0.00,0.0,WeatherDisplay:10.37,2013-01-09 03:40:00,
2013-01-08 21:45:00,34.6,30.0,29.81,South,182,8.1,8.1,83,0.00,OVC,,0.00,0.0,WeatherDisplay:10.37,2013-01-09 03:45:00,
2013-01-08 21:50:00,34.7,30.1,29.81,SE,124,3.5,3.5,83,0.00,OVC,,0.00,0.0,WeatherDisplay:10.37,2013-01-09 03:50:00,
2013-01-08 21:55:00,34.7,30.1,29.81,SW,215,9.0,9.0,83,0.00,OVC,,0.00,0.0,WeatherDisplay:10.37,2013-01-09 03:55:00,
2013-01-08 22:00:00,34.7,30.1,29.81,SSE,156,10.4,10.4,83,0.00,OVC,,0.00,0.0,WeatherDisplay:10.37,2013-01-09 04:00:00,
2013-01-08 22:05:00,34.7,30.1,29.81,SSE,156,1.1,1.1,83,0.00,OVC,,0.00,0.0,WeatherDisplay:10.37,2013-01-09 04:05:00,
2013-01-08 22:10:00,34.6,30.0,29.82,WNW,294,5.0,5.0,83,0.00,OVC,,0.00,0.0,WeatherDisplay:10.37,2013-01-09 04:10:00,
2013-01-08 22:15:00,34.5,29.9,29.82,SW,232,6.9,6.9,83,0.00,OVC,,0.00,0.0,WeatherDisplay:10.37,2013-01-09 04:15:00,
2013-01-08 22:21:00,34.5,29.9,29.82,West,260,12.7,12.7,83,0.00,OVC,,0.00,0.0,WeatherDisplay:10.37,2013-01-09 04:21:00,
2013-01-08 22:26:00,34.4,29.8,29.82,SW,231,6.0,6.0,83,0.00,OVC,,0.00,0.0,WeatherDisplay:10.37,2013-01-09 04:26:00,
2013-01-08 22:31:00,34.3,29.7,29.83,SE,131,4.6,4.6,83,0.00,OVC,,0.00,0.0,WeatherDisplay:10.37,2013-01-09 04:31:00,
2013-01-08 22:36:00,34.2,29.6,29.83,WSW,256,3.5,3.5,83,0.00,OVC,,0.00,0.0,WeatherDisplay:10.37,2013-01-09 04:36:00,
2013-01-08 22:41:00,34.1,29.5,29.83,SSE,157,12.7,12.7,83,0.00,OVC,,0.00,0.0,WeatherDisplay:10.37,2013-01-09 04:41:00,
2013-01-08 22:46:00,34.0,29.4,29.84,NNW,331,12.7,12.7,83,0.00,OVC,,0.00,0.0,WeatherDisplay:10.37,2013-01-09 04:46:00,
2013-01-08 22:51:00,33.9,29.3,29.83,South,184,4.6,4.6,83,0.00,OVC,,0.00,0.0,WeatherDisplay:10.37,2013-01-09 04:51:00,
2013-01-08 22:56:00,33.8,29.2,29.84,WSW,239,4.6,4.6,83,0.00,OVC,,0.00,0.0,WeatherDisplay:10.37,2013-01-09 04:56:00,
2013-01-08 23:00:00,33.8,29.5,29.84,SW,226,3.5,0.0,84,0.00,OVC,,0.00,0.0,WeatherDisplay:10.37,2013-01-09 05:00:00,
2013-01-08 23:03:00,33.8,29.2,29.84,West,263,11.0,11.0,83,0.00,OVC,,0.00,0.0,WeatherDisplay:10.37,2013-01-09 05:03:00,
2013-01-08 23:08:00,33.7,29.4,29.84,WNW,292,1.1,1.1,84,0.00,OVC,,0.00,0.0,WeatherDisplay:10.37,2013-01-09 05:08:00,
2013-01-08 23:13:00,33.6,29.3,29.84,West,273,5.8,5.8,84,0.00,OVC,,0.00,0.0,WeatherDisplay:10.37,2013-01-09 05:13:00,
2013-01-08 23:18:00,33.6,29.3,29.84,SSE,148,2.3,2.3,84,0.00,OVC,,0.00,0.0,WeatherDisplay:10.37,2013-01-09 05:18:00,
2013-01-08 23:23:00,33.5,29.2,29.84,West,266,4.0,4.0,84,0.00,OVC,,0.00,0.0,WeatherDisplay:10.37,2013-01-09 05:23:00,
2013-01-08 23:28:00,33.5,29.2,29.84,West,263,6.9,6.9,84,0.00,OVC,,0.00,0.0,WeatherDisplay:10.37,2013-01-09 05:28:00,
2013-01-08 23:33:00,33.4,28.8,29.84,NNW,327,3.5,3.5,83,0.00,OVC,,0.00,0.0,WeatherDisplay:10.37,2013-01-09 05:33:00,
2013-01-08 23:38:00,33.5,28.9,29.84,NNW,333,4.0,4.0,83,0.00,OVC,,0.00,0.0,WeatherDisplay:10.37,2013-01-09 05:38:00,
2013-01-08 23:43:00,33.5,28.9,29.84,SSW,199,2.3,2.3,83,0.00,OVC,,0.00,0.0,WeatherDisplay:10.37,2013-01-09 05:43:00,
2013-01-08 23:48:00,33.4,28.8,29.84,West,266,5.0,5.0,83,0.00,OVC,,0.00,0.0,WeatherDisplay:10.37,2013-01-09 05:48:00,
2013-01-08 23:53:00,33.4,28.8,29.84,SE,129,1.1,1.1,83,0.00,OVC,,0.00,0.0,WeatherDisplay:10.37,2013-01-09 05:53:00,
2013-01-08 23:58:00,33.3,28.7,29.84,West,268,2.3,2.3,83,0.00,OVC,,0.00,0.0,WeatherDisplay:10.37,2013-01-09 05:58:00,